Time;durP1;ratioP1;P1;durP2;ratioP2;P2;SDS_P1;SDS_P2;PMS_P1;PMS_P2;Temp;Humidity;BMP_temperature;BMP_pressure;BME280_temperature;BME280_humidity;BME280_pressure;Samples;Min_cycle;Max_cycle;Signal;HPM_P1;HPM_P2
2022/03/03 00:01:19;;;;;;;20.20;14.35;;;5.30;40.20;;;;;;5017930;28;25090;-74
2022/03/03 00:03:44;;;;;;;23.13;15.02;;;5.30;41.00;;;;;;5017923;28;25061;-73
2022/03/03 00:06:10;;;;;;;23.90;15.02;;;5.30;41.50;;;;;;5019320;28;25103;-74
2022/03/03 00:08:35;;;;;;;20.25;15.13;;;5.20;42.20;;;;;;5022370;28;25082;-75
2022/03/03 00:11:01;;;;;;;24.70;14.35;;;5.20;42.10;;;;;;5024424;28;25142;-75
2022/03/03 00:13:27;;;;;;;22.08;14.38;;;5.10;42.40;;;;;;5021613;28;25073;-75
2022/03/03 00:15:52;;;;;;;22.75;14.85;;;5.10;42.70;;;;;;4999253;28;25057;-73
2022/03/03 00:18:18;;;;;;;21.20;14.38;;;5.10;43.80;;;;;;5018067;28;25085;-76
2022/03/03 00:20:44;;;;;;;23.63;15.40;;;5.10;43.30;;;;;;5014347;28;25093;-74
2022/03/03 00:23:09;;;;;;;25.88;15.85;;;5.00;43.80;;;;;;4993279;28;25151;-74
2022/03/03 00:25:35;;;;;;;23.42;14.73;;;5.00;43.90;;;;;;5011848;28;25104;-75
2022/03/03 00:28:04;;;;;;;23.63;15.07;;;5.00;44.10;;;;;;5001111;28;25078;-75
2022/03/03 00:30:29;;;;;;;27.10;15.38;;;4.90;44.50;;;;;;5021194;28;25074;-76
2022/03/03 00:32:55;;;;;;;18.95;13.90;;;5.00;44.50;;;;;;5022322;28;25058;-73
2022/03/03 00:35:21;;;;;;;20.77;14.57;;;5.00;44.20;;;;;;5007042;28;25082;-76
2022/03/03 00:37:47;;;;;;;23.15;14.77;;;4.80;45.10;;;;;;5012874;28;25098;-75
2022/03/03 00:40:12;;;;;;;28.63;14.90;;;4.80;45.60;;;;;;5012613;28;25058;-75
2022/03/03 00:42:38;;;;;;;24.38;16.05;;;4.80;45.20;;;;;;5012451;28;25078;-73
2022/03/03 00:45:04;;;;;;;20.65;14.80;;;4.80;45.30;;;;;;5009888;28;25060;-75
2022/03/03 00:47:30;;;;;;;22.63;14.30;;;4.70;45.50;;;;;;5009381;28;25083;-74
2022/03/03 00:49:55;;;;;;;24.50;15.13;;;4.60;46.40;;;;;;5010683;28;25090;-75
2022/03/03 00:52:21;;;;;;;24.73;15.23;;;4.60;46.40;;;;;;5011186;28;25071;-74
2022/03/03 00:54:47;;;;;;;24.92;15.13;;;4.60;46.70;;;;;;5010816;28;25135;-74
2022/03/03 00:57:12;;;;;;;26.02;15.52;;;4.50;46.80;;;;;;5009720;28;25072;-76
2022/03/03 00:59:38;;;;;;;22.48;14.73;;;4.50;47.20;;;;;;5001873;28;25094;-75
2022/03/03 01:02:04;;;;;;;21.23;15.07;;;4.50;47.80;;;;;;5001352;28;25110;-75
2022/03/03 01:04:29;;;;;;;23.23;14.73;;;4.40;47.20;;;;;;5006941;28;25068;-73
2022/03/03 01:06:55;;;;;;;28.08;14.95;;;4.40;47.50;;;;;;4992146;28;25064;-74
2022/03/03 01:09:20;;;;;;;23.33;14.88;;;4.40;47.10;;;;;;5009241;28;25068;-74
2022/03/03 01:11:46;;;;;;;23.13;14.70;;;4.40;47.20;;;;;;5008229;28;24985;-75
2022/03/03 01:14:12;;;;;;;24.85;14.70;;;4.40;47.10;;;;;;5009114;28;24939;-75
2022/03/03 01:16:37;;;;;;;21.75;14.88;;;4.30;47.10;;;;;;5009316;28;25067;-76
2022/03/03 01:19:04;;;;;;;26.02;15.77;;;4.30;47.60;;;;;;5005082;28;25064;-75
2022/03/03 01:21:30;;;;;;;25.23;15.20;;;4.20;47.80;;;;;;5008585;28;25182;-73
2022/03/03 01:23:57;;;;;;;25.30;15.15;;;4.10;47.80;;;;;;5009992;28;25123;-76
2022/03/03 01:26:23;;;;;;;24.13;14.85;;;4.20;47.60;;;;;;5012890;28;25071;-75
2022/03/03 01:28:49;;;;;;;24.75;15.40;;;4.20;47.50;;;;;;5008806;28;25052;-74
2022/03/03 01:31:14;;;;;;;21.30;14.30;;;4.20;48.00;;;;;;5008954;28;25073;-75
2022/03/03 01:33:40;;;;;;;21.10;14.55;;;4.10;48.80;;;;;;5004029;28;25086;-73
2022/03/03 01:36:05;;;;;;;22.88;15.13;;;4.00;49.70;;;;;;5003309;28;25074;-75
2022/03/03 01:38:31;;;;;;;22.30;14.90;;;4.00;49.30;;;;;;5009705;28;25133;-74
2022/03/03 01:40:57;;;;;;;22.83;15.32;;;3.90;50.30;;;;;;5010659;28;25107;-73
2022/03/03 01:43:23;;;;;;;24.38;15.68;;;3.90;50.00;;;;;;4992932;28;25085;-75
2022/03/03 01:45:48;;;;;;;24.48;15.95;;;3.80;50.80;;;;;;5009900;28;25060;-73
2022/03/03 01:48:14;;;;;;;21.70;15.65;;;3.70;50.70;;;;;;5017714;28;25076;-73
2022/03/03 01:50:39;;;;;;;22.98;15.00;;;3.70;50.50;;;;;;4997073;28;25063;-76
2022/03/03 01:53:05;;;;;;;29.90;17.48;;;3.70;50.50;;;;;;5016438;28;25064;-75
2022/03/03 01:55:32;;;;;;;24.42;15.60;;;3.60;51.40;;;;;;4995097;28;25060;-74
2022/03/03 01:58:01;;;;;;;25.83;16.00;;;3.50;51.80;;;;;;5010007;28;25070;-75
2022/03/03 02:00:27;;;;;;;25.75;16.30;;;3.50;52.00;;;;;;5012129;28;25061;-77
2022/03/03 02:02:53;;;;;;;28.98;16.40;;;3.50;52.50;;;;;;5012547;28;25062;-75
2022/03/03 02:05:18;;;;;;;28.08;16.67;;;3.50;52.70;;;;;;5007058;28;25086;-76
2022/03/03 02:07:44;;;;;;;22.38;16.25;;;3.40;53.90;;;;;;5006290;28;25065;-73
2022/03/03 02:10:10;;;;;;;25.40;16.55;;;3.30;54.80;;;;;;5006762;28;25053;-76
2022/03/03 02:12:36;;;;;;;24.27;16.60;;;3.30;55.60;;;;;;5008377;28;25159;-74
2022/03/03 02:15:03;;;;;;;24.00;16.10;;;3.30;55.80;;;;;;5008634;28;25073;-74
2022/03/03 02:17:29;;;;;;;26.70;16.70;;;3.20;57.00;;;;;;5007959;28;25074;-74
2022/03/03 02:19:54;;;;;;;27.52;17.70;;;3.20;57.50;;;;;;5008017;28;25109;-75
2022/03/03 02:22:20;;;;;;;27.65;17.75;;;3.20;58.50;;;;;;5007463;28;25060;-75
2022/03/03 02:24:46;;;;;;;26.80;17.08;;;3.10;59.30;;;;;;5008695;28;25129;-73
2022/03/03 02:27:11;;;;;;;26.23;16.88;;;3.00;60.30;;;;;;5007636;28;25057;-75
2022/03/03 02:29:37;;;;;;;24.77;17.17;;;3.00;60.40;;;;;;5007924;28;25086;-75
2022/03/03 02:32:07;;;;;;;23.70;15.40;;;3.00;60.80;;;;;;5008722;28;25141;-75
2022/03/03 02:34:33;;;;;;;26.50;17.80;;;3.00;61.30;;;;;;5008090;28;25124;-75
2022/03/03 02:36:59;;;;;;;28.27;17.88;;;2.90;61.10;;;;;;5008198;28;25078;-74
2022/03/03 02:39:24;;;;;;;25.60;17.15;;;2.90;61.70;;;;;;5007635;28;25167;-74
2022/03/03 02:41:50;;;;;;;29.27;16.70;;;2.90;61.80;;;;;;5007950;28;25128;-74
2022/03/03 02:44:16;;;;;;;30.20;18.50;;;2.80;62.20;;;;;;4990541;28;25052;-74
2022/03/03 02:46:41;;;;;;;31.27;18.08;;;2.80;62.50;;;;;;5001368;28;25076;-74
2022/03/03 02:49:08;;;;;;;30.88;18.08;;;2.80;62.50;;;;;;5007071;28;25050;-75
2022/03/03 02:51:35;;;;;;;24.55;16.88;;;2.80;63.10;;;;;;5007184;28;25123;-73
2022/03/03 02:54:00;;;;;;;25.90;18.23;;;2.80;63.40;;;;;;4978036;28;25085;-73
2022/03/03 02:56:26;;;;;;;27.98;17.73;;;2.80;63.70;;;;;;5003770;28;25078;-74
2022/03/03 02:58:52;;;;;;;24.27;17.40;;;2.80;64.50;;;;;;5008240;28;25096;-75
2022/03/03 03:01:17;;;;;;;32.42;19.10;;;2.80;64.30;;;;;;5010032;28;25059;-75
2022/03/03 03:03:43;;;;;;;23.30;15.90;;;2.80;64.90;;;;;;4981382;28;25065;-74
2022/03/03 03:06:13;;;;;;;28.50;17.52;;;2.70;64.80;;;;;;5008081;28;25064;-74
2022/03/03 03:08:39;;;;;;;25.80;17.48;;;2.70;64.90;;;;;;5008133;28;25133;-74
2022/03/03 03:11:04;;;;;;;31.00;18.00;;;2.70;65.10;;;;;;5007923;28;25064;-74
2022/03/03 03:13:30;;;;;;;28.15;17.95;;;2.70;65.80;;;;;;5018123;28;25057;-74
2022/03/03 03:15:56;;;;;;;30.23;18.85;;;2.70;65.90;;;;;;5012826;28;25073;-77
2022/03/03 03:18:22;;;;;;;28.42;18.05;;;2.70;65.60;;;;;;5025559;28;25112;-75
2022/03/03 03:20:51;;;;;;;27.48;18.08;;;2.70;65.80;;;;;;4998264;28;25056;-74
2022/03/03 03:23:19;;;;;;;23.85;17.23;;;2.70;66.40;;;;;;5014028;28;25111;-73
2022/03/03 03:25:44;;;;;;;28.25;18.77;;;2.70;65.90;;;;;;5012413;28;25071;-75
2022/03/03 03:28:12;;;;;;;25.80;16.98;;;2.70;65.90;;;;;;5026321;28;25088;-76
2022/03/03 03:30:37;;;;;;;26.88;18.25;;;2.70;66.20;;;;;;5022591;28;25079;-75
2022/03/03 03:33:03;;;;;;;29.55;18.35;;;2.80;66.40;;;;;;5019524;28;25074;-75
2022/03/03 03:35:29;;;;;;;29.75;17.77;;;2.70;66.30;;;;;;5009315;28;25154;-73
2022/03/03 03:37:55;;;;;;;25.33;17.55;;;2.80;66.10;;;;;;5004182;28;25068;-74
2022/03/03 03:40:21;;;;;;;27.73;17.58;;;2.80;65.50;;;;;;5002826;28;25060;-75
2022/03/03 03:42:46;;;;;;;27.05;17.15;;;2.80;65.30;;;;;;4998108;28;25112;-74
2022/03/03 03:45:13;;;;;;;26.55;16.67;;;2.80;65.40;;;;;;4980759;28;25133;-73
2022/03/03 03:47:40;;;;;;;26.95;17.38;;;2.80;65.00;;;;;;4995201;28;25053;-75
2022/03/03 03:50:08;;;;;;;27.17;17.75;;;2.80;64.70;;;;;;4997325;28;25066;-75
2022/03/03 03:52:35;;;;;;;24.55;16.50;;;2.80;64.60;;;;;;4979986;28;25124;-75
2022/03/03 03:55:01;;;;;;;30.73;18.08;;;2.80;64.40;;;;;;5000805;28;25065;-75
2022/03/03 03:57:26;;;;;;;26.05;16.75;;;2.80;64.00;;;;;;4995741;28;25147;-74
2022/03/03 03:59:52;;;;;;;26.67;16.48;;;2.80;64.20;;;;;;5001534;28;25074;-74
2022/03/03 04:02:17;;;;;;;29.48;17.85;;;2.70;64.10;;;;;;4989656;28;25178;-74
2022/03/03 04:04:43;;;;;;;31.13;18.77;;;2.70;64.40;;;;;;5011034;28;25149;-74
2022/03/03 04:07:08;;;;;;;26.42;17.85;;;2.70;64.20;;;;;;5010860;28;25158;-73
2022/03/03 04:09:34;;;;;;;24.60;17.48;;;2.70;64.10;;;;;;5010995;28;25132;-74
2022/03/03 04:12:00;;;;;;;26.42;18.33;;;2.60;64.20;;;;;;5011361;28;25055;-74
2022/03/03 04:14:25;;;;;;;29.30;17.58;;;2.60;64.80;;;;;;4993098;28;25137;-72
2022/03/03 04:16:51;;;;;;;29.88;17.50;;;2.60;65.20;;;;;;5010456;28;25075;-73
2022/03/03 04:19:16;;;;;;;28.50;18.60;;;2.60;65.60;;;;;;5010577;28;25049;-74
2022/03/03 04:21:42;;;;;;;30.27;18.65;;;2.50;66.10;;;;;;5011129;28;25065;-73
2022/03/03 04:24:08;;;;;;;29.73;18.42;;;2.50;66.60;;;;;;5010330;28;25069;-74
2022/03/03 04:26:34;;;;;;;29.15;18.27;;;2.50;67.10;;;;;;5010890;28;25080;-74
2022/03/03 04:29:00;;;;;;;31.00;19.10;;;2.50;67.10;;;;;;5010194;28;25080;-74
2022/03/03 04:31:26;;;;;;;27.70;17.38;;;2.40;67.90;;;;;;4992170;28;25078;-74
2022/03/03 04:33:51;;;;;;;30.90;19.27;;;2.40;68.00;;;;;;5009431;28;25064;-74
2022/03/03 04:36:17;;;;;;;25.15;18.50;;;2.40;68.80;;;;;;4995652;28;25116;-73
2022/03/03 04:38:45;;;;;;;30.20;18.80;;;2.30;69.50;;;;;;5010026;28;25076;-74
2022/03/03 04:41:11;;;;;;;29.70;18.75;;;2.30;70.00;;;;;;4992979;28;25077;-74
2022/03/03 04:43:37;;;;;;;26.83;18.80;;;2.30;70.30;;;;;;5009518;28;25060;-74
2022/03/03 04:46:02;;;;;;;27.73;19.02;;;2.30;70.50;;;;;;5009613;28;25073;-75
2022/03/03 04:48:29;;;;;;;27.13;18.52;;;2.30;70.20;;;;;;5007082;28;25074;-76
2022/03/03 04:50:58;;;;;;;29.17;19.25;;;2.20;70.70;;;;;;5009894;28;25077;-74
2022/03/03 04:53:25;;;;;;;29.33;20.23;;;2.20;70.80;;;;;;5009766;28;25095;-74
2022/03/03 04:55:51;;;;;;;30.15;19.58;;;2.20;70.90;;;;;;5010558;28;25159;-74
2022/03/03 04:58:17;;;;;;;30.20;20.05;;;2.20;71.50;;;;;;4994204;28;25070;-75
2022/03/03 05:00:43;;;;;;;28.42;18.70;;;2.10;72.50;;;;;;4990741;28;25112;-75
2022/03/03 05:03:09;;;;;;;28.75;19.10;;;2.10;72.40;;;;;;4990742;28;25073;-73
2022/03/03 05:05:35;;;;;;;28.52;18.80;;;2.10;73.00;;;;;;5009878;28;25102;-74
2022/03/03 05:08:00;;;;;;;32.28;20.55;;;2.10;72.50;;;;;;5009552;28;25147;-73
2022/03/03 05:10:26;;;;;;;28.90;19.65;;;2.10;72.70;;;;;;5010088;28;25081;-74
2022/03/03 05:12:52;;;;;;;30.90;18.83;;;2.10;72.70;;;;;;5001073;28;25062;-73
2022/03/03 05:15:18;;;;;;;34.47;19.63;;;2.10;73.20;;;;;;5002276;28;25070;-76
2022/03/03 05:17:43;;;;;;;29.50;20.17;;;2.00;73.00;;;;;;5010003;28;25076;-73
2022/03/03 05:20:09;;;;;;;29.02;18.85;;;2.00;73.40;;;;;;5009997;28;25071;-71
2022/03/03 05:22:35;;;;;;;29.75;19.63;;;1.90;73.90;;;;;;5009460;28;25058;-73
2022/03/03 05:25:01;;;;;;;28.58;18.98;;;1.90;73.90;;;;;;5009828;28;25070;-73
2022/03/03 05:27:27;;;;;;;29.42;19.58;;;1.90;73.90;;;;;;5004234;28;25106;-73
2022/03/03 05:29:53;;;;;;;28.55;18.40;;;1.90;74.30;;;;;;5008145;28;25065;-73
2022/03/03 05:32:19;;;;;;;31.13;19.77;;;1.90;73.90;;;;;;5006494;28;25108;-74
2022/03/03 05:34:44;;;;;;;31.70;19.23;;;1.90;73.40;;;;;;5004865;28;25078;-72
2022/03/03 05:37:10;;;;;;;32.17;20.25;;;1.90;73.50;;;;;;5003832;28;25161;-72
2022/03/03 05:39:36;;;;;;;32.20;20.20;;;1.90;73.50;;;;;;5000918;28;25140;-73
2022/03/03 05:42:02;;;;;;;29.75;19.13;;;1.90;73.20;;;;;;5002706;28;25057;-73
2022/03/03 05:44:28;;;;;;;31.40;20.15;;;1.90;73.10;;;;;;5006483;28;25064;-73
2022/03/03 05:46:55;;;;;;;35.03;20.48;;;1.90;73.40;;;;;;4990870;28;25052;-73
2022/03/03 05:49:22;;;;;;;33.17;20.35;;;1.80;73.60;;;;;;5004059;28;25058;-73
2022/03/03 05:51:49;;;;;;;35.67;20.50;;;1.80;74.00;;;;;;5007995;28;25152;-74
2022/03/03 05:54:14;;;;;;;34.20;21.85;;;1.80;73.90;;;;;;4991030;28;25058;-75
2022/03/03 05:56:45;;;;;;;33.10;20.30;;;1.80;74.20;;;;;;4992149;28;25158;-73
2022/03/03 05:59:14;;;;;;;35.17;21.10;;;1.80;74.60;;;;;;5008602;28;25072;-74
2022/03/03 06:01:42;;;;;;;34.05;21.48;;;1.80;74.80;;;;;;5022386;28;25064;-75
2022/03/03 06:04:12;;;;;;;31.77;19.92;;;1.70;75.40;;;;;;5012069;28;25118;-74
2022/03/03 06:06:38;;;;;;;36.40;20.60;;;1.70;75.40;;;;;;5009444;28;25043;-74
2022/03/03 06:09:14;;;;;;;32.38;19.73;;;1.60;75.60;;;;;;5008932;28;25077;-74
2022/03/03 06:11:49;;;;;;;30.55;19.23;;;1.60;76.00;;;;;;4990209;28;25052;-73
2022/03/03 06:14:20;;;;;;;34.35;20.77;;;1.60;75.70;;;;;;5004222;28;25066;-73
2022/03/03 06:16:45;;;;;;;33.28;19.45;;;1.70;76.20;;;;;;4987701;28;25118;-74
2022/03/03 06:19:11;;;;;;;32.97;20.63;;;1.70;76.00;;;;;;4999180;28;25159;-74
2022/03/03 06:21:37;;;;;;;37.95;20.98;;;1.70;75.70;;;;;;4998480;28;25050;-75
2022/03/03 06:24:03;;;;;;;31.73;21.42;;;1.70;75.90;;;;;;5007493;28;25081;-73
2022/03/03 06:26:28;;;;;;;26.50;18.73;;;1.60;76.20;;;;;;5004543;28;25080;-75
2022/03/03 06:28:54;;;;;;;28.42;18.92;;;1.60;76.40;;;;;;4981601;28;25067;-74
2022/03/03 06:31:20;;;;;;;35.92;21.02;;;1.60;76.70;;;;;;4997672;28;25081;-74
2022/03/03 06:33:46;;;;;;;28.33;19.77;;;1.60;76.70;;;;;;5006922;28;25154;-74
2022/03/03 06:36:11;;;;;;;36.33;21.45;;;1.60;76.40;;;;;;4985933;28;25142;-74
2022/03/03 06:38:37;;;;;;;33.05;20.45;;;1.60;76.50;;;;;;5003991;28;25052;-75
2022/03/03 06:41:05;;;;;;;32.60;19.88;;;1.60;76.40;;;;;;5004080;28;25108;-75
2022/03/03 06:43:31;;;;;;;30.83;20.88;;;1.60;77.00;;;;;;5003881;28;25050;-74
2022/03/03 06:45:57;;;;;;;31.63;20.83;;;1.60;76.80;;;;;;5001250;28;25074;-73
2022/03/03 06:48:23;;;;;;;29.55;20.20;;;1.60;77.10;;;;;;5000548;28;25079;-72
2022/03/03 06:50:52;;;;;;;32.67;20.88;;;1.60;77.30;;;;;;5008691;28;25066;-72
2022/03/03 06:53:25;;;;;;;38.10;21.40;;;1.60;77.20;;;;;;5008353;28;25075;-73
2022/03/03 06:55:52;;;;;;;32.13;19.98;;;1.60;77.10;;;;;;5009337;28;25063;-73
2022/03/03 06:58:22;;;;;;;31.27;20.42;;;1.70;76.90;;;;;;4991141;28;25060;-74
2022/03/03 07:00:52;;;;;;;31.42;19.20;;;1.70;76.50;;;;;;5009435;28;25071;-72
2022/03/03 07:03:20;;;;;;;31.00;19.40;;;1.80;76.20;;;;;;5010829;28;25102;-74
2022/03/03 07:05:46;;;;;;;34.92;20.58;;;1.80;75.90;;;;;;5009104;28;25131;-73
2022/03/03 07:08:13;;;;;;;34.58;21.10;;;1.90;75.80;;;;;;5009301;28;25069;-73
2022/03/03 07:10:39;;;;;;;33.38;20.30;;;2.00;75.00;;;;;;5009400;28;25058;-73
2022/03/03 07:13:05;;;;;;;31.27;19.98;;;2.00;74.60;;;;;;5009374;28;25074;-73
2022/03/03 07:15:34;;;;;;;31.42;20.33;;;2.00;74.10;;;;;;5008988;28;25069;-73
2022/03/03 07:18:11;;;;;;;31.02;20.17;;;2.10;73.80;;;;;;5009305;28;25158;-73
2022/03/03 07:20:46;;;;;;;31.88;20.35;;;2.10;73.20;;;;;;5009552;28;25141;-72
2022/03/03 07:23:20;;;;;;;32.58;20.08;;;2.20;72.80;;;;;;5009224;28;25049;-74
2022/03/03 07:25:51;;;;;;;31.50;19.80;;;2.20;72.20;;;;;;5009392;28;25073;-73
2022/03/03 07:28:19;;;;;;;31.15;20.05;;;2.20;72.20;;;;;;5010449;28;25076;-73
2022/03/03 07:30:48;;;;;;;30.85;19.83;;;2.20;72.50;;;;;;5008816;28;25102;-74
2022/03/03 07:33:37;;;;;;;31.65;19.52;;;2.30;72.50;;;;;;5008929;28;25054;-74
2022/03/03 07:36:09;;;;;;;28.38;19.75;;;2.30;72.30;;;;;;5000869;28;25074;-73
2022/03/03 07:38:38;;;;;;;31.90;19.88;;;2.40;72.50;;;;;;5009725;28;25082;-72
2022/03/03 07:41:05;;;;;;;31.83;19.23;;;2.40;71.30;;;;;;5009545;28;25090;-73
2022/03/03 07:43:31;;;;;;;36.95;20.05;;;2.50;71.00;;;;;;5009815;28;25099;-75
2022/03/03 07:45:57;;;;;;;32.63;20.92;;;2.50;71.20;;;;;;5008864;28;25138;-72
2022/03/03 07:48:24;;;;;;;30.42;19.77;;;2.60;71.50;;;;;;5008403;28;25085;-73
2022/03/03 07:50:49;;;;;;;32.88;20.48;;;2.60;71.60;;;;;;5007633;28;25059;-73
2022/03/03 07:53:15;;;;;;;33.22;20.92;;;2.60;71.60;;;;;;5007650;28;25149;-73
2022/03/03 07:55:46;;;;;;;31.05;20.63;;;2.60;71.60;;;;;;5009077;28;25071;-73
2022/03/03 07:58:16;;;;;;;28.48;19.52;;;2.70;71.40;;;;;;5008906;28;25067;-73
2022/03/03 08:00:48;;;;;;;32.35;19.30;;;2.80;71.00;;;;;;5009033;28;25098;-74
2022/03/03 08:03:20;;;;;;;28.85;19.15;;;2.80;70.70;;;;;;4991172;28;25092;-73
2022/03/03 08:05:48;;;;;;;30.95;18.42;;;2.80;71.00;;;;;;5008745;28;25108;-73
2022/03/03 08:08:16;;;;;;;32.78;19.77;;;2.90;69.70;;;;;;5008935;28;25050;-72
2022/03/03 08:10:45;;;;;;;30.80;20.50;;;2.90;69.60;;;;;;5009580;28;25043;-72
2022/03/03 08:13:13;;;;;;;32.00;19.58;;;3.00;68.60;;;;;;4991986;28;25050;-71
2022/03/03 08:15:40;;;;;;;31.08;21.17;;;3.10;68.30;;;;;;5010570;28;25053;-73
2022/03/03 08:18:07;;;;;;;34.25;20.30;;;3.10;67.90;;;;;;5010689;28;25096;-72
2022/03/03 08:20:34;;;;;;;33.08;19.42;;;3.20;67.10;;;;;;5013988;28;25073;-72
2022/03/03 08:23:01;;;;;;;32.40;20.70;;;3.30;66.30;;;;;;5021291;28;25074;-73
2022/03/03 08:25:27;;;;;;;35.88;21.35;;;3.30;65.60;;;;;;5021816;28;25097;-72
2022/03/03 08:27:54;;;;;;;32.35;20.60;;;3.50;65.50;;;;;;5021758;28;25095;-73
2022/03/03 08:30:20;;;;;;;34.40;21.95;;;3.60;64.20;;;;;;5023038;28;25095;-74
2022/03/03 08:32:58;;;;;;;29.02;19.33;;;3.70;63.20;;;;;;5021493;28;25062;-74
2022/03/03 08:35:27;;;;;;;29.98;19.90;;;3.80;61.90;;;;;;5023293;28;25059;-72
2022/03/03 08:38:05;;;;;;;29.63;19.85;;;4.00;62.30;;;;;;5021614;28;25085;-72
2022/03/03 08:40:32;;;;;;;30.90;19.58;;;4.20;61.20;;;;;;5022844;28;25058;-72
2022/03/03 08:43:00;;;;;;;29.70;19.83;;;4.30;60.40;;;;;;5022799;28;25165;-72
2022/03/03 08:45:29;;;;;;;27.98;19.00;;;4.40;60.20;;;;;;5029495;28;25075;-75
2022/03/03 08:47:57;;;;;;;33.20;19.35;;;4.50;59.20;;;;;;5024424;28;25051;-74
2022/03/03 08:50:27;;;;;;;27.58;18.45;;;4.70;58.60;;;;;;5014339;28;25063;-74
2022/03/03 08:52:54;;;;;;;25.27;17.95;;;4.80;58.30;;;;;;5016010;28;25081;-74
2022/03/03 08:55:20;;;;;;;28.50;18.92;;;4.90;56.80;;;;;;5015173;28;25079;-74
2022/03/03 08:57:45;;;;;;;25.50;17.98;;;5.00;55.40;;;;;;5013796;28;25159;-72
2022/03/03 09:00:12;;;;;;;29.42;19.42;;;5.10;55.60;;;;;;5012718;28;25081;-70
2022/03/03 09:02:40;;;;;;;27.98;16.58;;;5.20;55.10;;;;;;5013286;28;25062;-74
2022/03/03 09:05:06;;;;;;;30.30;17.98;;;5.20;54.10;;;;;;5013036;28;25047;-73
2022/03/03 09:07:32;;;;;;;24.75;17.50;;;5.30;54.80;;;;;;5012662;28;25150;-73
2022/03/03 09:09:57;;;;;;;31.33;18.90;;;5.50;53.70;;;;;;5013092;28;25067;-74
2022/03/03 09:12:23;;;;;;;29.42;18.80;;;5.70;52.50;;;;;;5012277;28;25168;-73
2022/03/03 09:14:49;;;;;;;26.33;17.80;;;5.80;52.60;;;;;;5012585;28;25062;-74
2022/03/03 09:17:14;;;;;;;28.75;17.15;;;5.90;52.00;;;;;;5012561;28;25083;-74
2022/03/03 09:19:40;;;;;;;29.70;17.90;;;6.00;50.00;;;;;;5012380;28;25138;-75
2022/03/03 09:22:06;;;;;;;27.10;17.55;;;6.00;49.70;;;;;;5011365;28;25143;-74
2022/03/03 09:24:31;;;;;;;25.92;16.73;;;6.20;49.90;;;;;;5017108;28;25062;-74
2022/03/03 09:26:57;;;;;;;24.42;16.75;;;6.40;50.30;;;;;;5011623;28;25077;-76
2022/03/03 09:29:23;;;;;;;25.75;17.27;;;6.50;49.60;;;;;;5013074;28;25092;-74
2022/03/03 09:31:49;;;;;;;27.70;16.98;;;6.70;49.30;;;;;;5012833;28;25140;-72
2022/03/03 09:34:15;;;;;;;33.08;16.33;;;6.50;46.70;;;;;;5012978;28;25089;-73
2022/03/03 09:36:41;;;;;;;22.77;15.75;;;6.50;46.90;;;;;;5013025;28;25074;-73
2022/03/03 09:39:07;;;;;;;24.02;16.42;;;6.50;45.90;;;;;;5012923;28;25082;-72
2022/03/03 09:41:33;;;;;;;23.88;16.08;;;6.60;46.80;;;;;;4994678;28;25090;-75
2022/03/03 09:43:58;;;;;;;24.40;16.25;;;6.60;46.50;;;;;;5011473;28;25076;-74
2022/03/03 09:46:24;;;;;;;26.33;16.00;;;6.80;45.60;;;;;;5011766;28;25064;-74
2022/03/03 09:48:51;;;;;;;21.08;14.77;;;6.90;44.40;;;;;;5011780;28;25072;-71
2022/03/03 09:51:17;;;;;;;23.23;15.70;;;7.10;44.00;;;;;;5012023;28;25063;-74
2022/03/03 09:53:43;;;;;;;22.77;15.98;;;7.20;42.50;;;;;;5010815;28;25082;-72
2022/03/03 09:56:09;;;;;;;19.75;15.07;;;7.30;41.20;;;;;;5010742;28;25151;-74
2022/03/03 09:58:35;;;;;;;27.92;15.75;;;7.60;41.10;;;;;;5010941;28;25063;-73
2022/03/03 10:01:01;;;;;;;24.50;15.43;;;7.60;39.30;;;;;;5011461;28;25174;-74
2022/03/03 10:03:34;;;;;;;26.50;15.45;;;7.80;40.30;;;;;;5011806;28;25108;-73
2022/03/03 10:06:01;;;;;;;25.95;15.20;;;8.10;39.60;;;;;;5011586;28;25063;-74
2022/03/03 10:08:28;;;;;;;23.38;15.65;;;8.30;39.20;;;;;;5011340;28;25068;-73
2022/03/03 10:10:59;;;;;;;20.98;14.80;;;8.60;38.30;;;;;;5011755;28;25152;-73
2022/03/03 10:13:25;;;;;;;22.13;15.10;;;8.70;35.00;;;;;;5011365;28;25053;-73
2022/03/03 10:15:54;;;;;;;21.58;14.70;;;8.40;32.60;;;;;;4993870;28;25137;-72
2022/03/03 10:18:20;;;;;;;22.15;15.48;;;8.20;32.50;;;;;;4993675;28;25127;-72
2022/03/03 10:20:53;;;;;;;24.08;14.43;;;8.20;32.70;;;;;;5012141;28;25064;-72
2022/03/03 10:23:27;;;;;;;21.40;14.80;;;8.30;33.00;;;;;;5011592;28;25063;-73
2022/03/03 10:25:54;;;;;;;18.88;14.05;;;8.60;32.50;;;;;;5011997;28;25051;-72
2022/03/03 10:28:28;;;;;;;20.83;14.88;;;8.70;31.00;;;;;;5012241;28;25078;-74
2022/03/03 10:31:03;;;;;;;23.35;14.93;;;8.80;32.10;;;;;;5011631;28;25151;-73
2022/03/03 10:33:39;;;;;;;21.80;14.73;;;8.70;30.80;;;;;;5011513;28;25092;-73
2022/03/03 10:36:24;;;;;;;21.17;14.52;;;8.90;29.90;;;;;;5012018;28;25106;-74
2022/03/03 10:38:56;;;;;;;21.48;14.55;;;8.90;28.80;;;;;;5011247;28;25076;-73
2022/03/03 10:41:35;;;;;;;18.02;12.98;;;9.00;30.80;;;;;;5012020;28;25125;-73
2022/03/03 10:44:11;;;;;;;19.25;13.68;;;9.10;31.10;;;;;;5011144;28;25066;-74
2022/03/03 10:47:00;;;;;;;20.55;14.07;;;9.20;31.60;;;;;;5012045;28;25111;-73
2022/03/03 10:49:26;;;;;;;17.45;12.65;;;9.20;28.90;;;;;;5011425;28;25174;-72
2022/03/03 10:51:52;;;;;;;22.55;13.90;;;9.00;26.60;;;;;;5014973;28;25111;-72
2022/03/03 10:54:18;;;;;;;23.73;14.35;;;9.10;27.10;;;;;;5025181;28;25087;-74
2022/03/03 10:56:48;;;;;;;20.35;14.02;;;9.00;27.70;;;;;;5028359;28;25060;-74
2022/03/03 10:59:23;;;;;;;23.85;13.38;;;9.00;27.30;;;;;;5014309;28;25054;-72
2022/03/03 11:01:49;;;;;;;19.73;14.07;;;9.30;27.00;;;;;;5010867;28;25057;-73
2022/03/03 11:04:18;;;;;;;26.70;14.20;;;9.40;27.40;;;;;;5010637;28;25176;-74
2022/03/03 11:06:45;;;;;;;20.55;13.15;;;9.60;26.10;;;;;;5010890;28;25081;-73
2022/03/03 11:09:10;;;;;;;20.73;13.50;;;9.60;24.00;;;;;;5010816;28;25071;-72
2022/03/03 11:11:37;;;;;;;15.57;12.65;;;9.70;24.60;;;;;;5010877;28;25051;-72
2022/03/03 11:14:02;;;;;;;17.08;12.45;;;9.90;24.00;;;;;;5010240;28;25055;-73
2022/03/03 11:16:28;;;;;;;18.63;12.95;;;10.00;23.20;;;;;;4993121;28;25077;-74
2022/03/03 11:18:54;;;;;;;18.33;12.77;;;10.20;23.40;;;;;;5011032;28;25076;-73
2022/03/03 11:21:20;;;;;;;20.50;13.15;;;10.30;23.40;;;;;;5012328;28;25065;-72
2022/03/03 11:24:08;;;;;;;19.20;13.32;;;10.50;22.70;;;;;;5013561;28;25051;-73
2022/03/03 11:26:45;;;;;;;17.83;12.80;;;11.10;21.90;;;;;;5019157;28;25073;-73
2022/03/03 11:29:14;;;;;;;21.55;14.18;;;11.00;21.70;;;;;;5017273;28;25063;-73
2022/03/03 11:31:41;;;;;;;17.58;13.10;;;10.70;18.80;;;;;;5011343;28;25062;-72
2022/03/03 11:34:29;;;;;;;17.23;12.98;;;10.90;19.20;;;;;;5013014;28;25063;-74
2022/03/03 11:37:06;;;;;;;18.13;12.23;;;11.10;18.80;;;;;;5032379;28;25100;-74
2022/03/03 11:39:40;;;;;;;17.25;11.82;;;11.20;17.70;;;;;;5031173;28;25058;-74
2022/03/03 11:42:22;;;;;;;18.80;12.65;;;11.60;18.10;;;;;;5019618;28;25070;-72
2022/03/03 11:44:50;;;;;;;19.45;11.65;;;11.40;16.80;;;;;;5012138;28;25067;-75
2022/03/03 11:47:25;;;;;;;19.48;12.65;;;11.50;17.40;;;;;;5010410;28;25083;-72
2022/03/03 11:50:16;;;;;;;16.35;13.00;;;11.70;15.90;;;;;;5009892;28;25095;-73
2022/03/03 11:53:02;;;;;;;18.85;11.73;;;11.50;15.90;;;;;;5010340;28;25071;-75
2022/03/03 11:55:37;;;;;;;17.85;12.18;;;11.60;14.60;;;;;;5000127;28;25081;-72
2022/03/03 11:58:17;;;;;;;18.13;12.18;;;11.50;14.90;;;;;;5013512;28;25078;-73
2022/03/03 12:01:02;;;;;;;18.30;12.27;;;12.10;16.20;;;;;;5013962;28;25175;-73
2022/03/03 12:03:31;;;;;;;16.10;11.85;;;11.80;13.30;;;;;;5013466;28;25067;-74
2022/03/03 12:06:12;;;;;;;14.32;11.45;;;11.70;12.20;;;;;;4995836;28;25063;-71
2022/03/03 12:08:39;;;;;;;15.82;11.20;;;11.60;11.70;;;;;;5012450;28;25072;-73
2022/03/03 12:11:25;;;;;;;18.85;13.10;;;12.00;12.50;;;;;;5012188;28;25073;-73
2022/03/03 12:13:51;;;;;;;16.65;11.40;;;12.30;12.30;;;;;;5011591;28;25071;-73
2022/03/03 12:16:22;;;;;;;18.17;12.18;;;12.40;12.80;;;;;;5012914;28;25062;-73
2022/03/03 12:18:58;;;;;;;17.30;11.25;;;12.20;10.90;;;;;;5012998;28;25137;-73
2022/03/03 12:21:37;;;;;;;17.88;11.15;;;12.30;10.80;;;;;;5014379;28;25058;-72
2022/03/03 12:24:35;;;;;;;17.17;13.07;;;12.10;11.50;;;;;;5013628;28;25060;-73
2022/03/03 12:27:05;;;;;;;14.70;10.40;;;12.20;10.00;;;;;;5012851;28;25152;-73
2022/03/03 12:29:34;;;;;;;17.48;12.18;;;12.10;9.90;;;;;;5013937;28;25080;-74
2022/03/03 12:32:25;;;;;;;19.75;11.90;;;12.20;10.10;;;;;;5012530;28;25147;-74
2022/03/03 12:34:52;;;;;;;17.52;12.18;;;12.30;8.80;;;;;;5012823;28;25070;-73
2022/03/03 12:37:18;;;;;;;14.95;11.20;;;12.30;9.80;;;;;;5014216;28;25090;-73
2022/03/03 12:39:51;;;;;;;15.70;10.98;;;12.40;9.70;;;;;;5014010;28;25076;-75